createdAt,value
2023-03-13T00:01:13.998Z,17.23
2023-03-13T00:03:43.346Z,17.26
2023-03-13T00:06:11.392Z,17.19
2023-03-13T00:08:39.374Z,17.19
2023-03-13T00:11:08.454Z,17.16
2023-03-13T00:13:36.488Z,17.20
2023-03-13T00:16:05.608Z,17.15
2023-03-13T00:18:33.877Z,17.18
2023-03-13T00:21:05.176Z,17.17
2023-03-13T00:23:37.326Z,17.23
2023-03-13T00:26:07.209Z,17.33
2023-03-13T00:28:36.262Z,17.36
2023-03-13T00:31:05.224Z,17.36
2023-03-13T00:33:34.379Z,17.41
2023-03-13T00:36:05.764Z,17.43
2023-03-13T00:38:34.404Z,17.40
2023-03-13T00:41:03.532Z,17.32
2023-03-13T00:43:31.927Z,17.37
2023-03-13T00:46:00.594Z,17.35
2023-03-13T00:48:29.459Z,17.26
2023-03-13T00:50:57.506Z,17.28
2023-03-13T00:53:26.880Z,17.32
2023-03-13T00:55:56.867Z,17.32
2023-03-13T00:58:25.964Z,17.33
2023-03-13T01:00:54.289Z,17.35
2023-03-13T01:03:25.619Z,17.27
2023-03-13T01:05:58.000Z,17.37
2023-03-13T01:08:28.005Z,17.38
2023-03-13T01:11:00.459Z,17.37
2023-03-13T01:13:29.196Z,17.45
2023-03-13T01:15:57.404Z,17.41
2023-03-13T01:18:25.314Z,17.44
2023-03-13T01:20:54.340Z,17.40
2023-03-13T01:23:22.188Z,17.49
2023-03-13T01:25:51.585Z,17.48
2023-03-13T01:28:19.811Z,17.46
2023-03-13T01:30:47.909Z,17.41
2023-03-13T01:33:16.345Z,17.28
2023-03-13T01:35:44.651Z,17.24
2023-03-13T01:38:12.643Z,17.33
2023-03-13T01:40:42.193Z,17.28
2023-03-13T01:43:27.080Z,17.25
2023-03-13T01:46:02.170Z,17.27
2023-03-13T01:48:39.553Z,17.24
2023-03-13T01:51:11.650Z,17.23
2023-03-13T01:53:44.559Z,17.23
2023-03-13T01:56:18.551Z,17.27
2023-03-13T01:58:50.403Z,17.33
2023-03-13T02:01:20.010Z,17.39
2023-03-13T02:03:50.405Z,17.45
2023-03-13T02:06:19.695Z,17.59
2023-03-13T02:08:52.773Z,17.63
2023-03-13T02:11:27.311Z,17.58
2023-03-13T02:13:57.735Z,17.69
2023-03-13T02:16:26.488Z,17.69
2023-03-13T02:18:54.908Z,17.66
2023-03-13T02:21:36.638Z,17.70
2023-03-13T02:24:15.114Z,17.69
2023-03-13T02:26:44.430Z,17.70
2023-03-13T02:29:18.438Z,17.72
2023-03-13T02:31:48.602Z,17.70
2023-03-13T02:34:20.625Z,17.74
2023-03-13T02:36:50.373Z,17.64
2023-03-13T02:39:21.742Z,17.69
2023-03-13T02:41:52.949Z,17.72
2023-03-13T02:44:20.824Z,17.73
2023-03-13T02:46:52.557Z,17.66
2023-03-13T02:49:29.121Z,17.63
2023-03-13T02:52:01.286Z,17.58
2023-03-13T02:54:34.408Z,17.57
2023-03-13T02:57:06.214Z,17.58
2023-03-13T02:59:34.937Z,17.52
2023-03-13T03:02:03.413Z,17.54
2023-03-13T03:04:32.163Z,17.53
2023-03-13T03:07:00.684Z,17.46
2023-03-13T03:09:28.544Z,17.32
2023-03-13T03:11:56.625Z,17.17
2023-03-13T03:14:26.069Z,17.07
2023-03-13T03:16:53.987Z,17.05
2023-03-13T03:19:21.907Z,16.99
2023-03-13T03:21:49.795Z,17.05
2023-03-13T03:24:17.728Z,17.07
2023-03-13T03:26:46.096Z,17.07
2023-03-13T03:29:14.294Z,17.11
2023-03-13T03:31:43.785Z,17.12
2023-03-13T03:34:12.046Z,17.09
2023-03-13T03:36:39.920Z,17.05
2023-03-13T03:39:07.733Z,17.07
2023-03-13T03:41:35.963Z,17.10
2023-03-13T03:44:03.808Z,17.16
2023-03-13T03:46:32.032Z,17.16
2023-03-13T03:49:01.367Z,17.19
2023-03-13T03:51:29.280Z,17.16
2023-03-13T03:53:57.476Z,17.21
2023-03-13T03:56:25.798Z,17.22
2023-03-13T03:58:53.686Z,17.21
2023-03-13T04:01:21.806Z,17.12
2023-03-13T04:03:50.278Z,17.10
2023-03-13T04:06:19.726Z,17.09
2023-03-13T04:08:47.595Z,17.19
2023-03-13T04:11:15.782Z,17.12
2023-03-13T04:13:43.652Z,17.12
2023-03-13T04:16:12.341Z,17.05
2023-03-13T04:18:40.262Z,17.11
2023-03-13T04:21:08.259Z,17.05
2023-03-13T04:23:37.532Z,17.06
2023-03-13T04:26:05.854Z,17.05
2023-03-13T04:28:33.686Z,17.04
2023-03-13T04:31:01.712Z,17.13
2023-03-13T04:33:30.507Z,17.09
2023-03-13T04:35:58.392Z,17.07
2023-03-13T04:38:26.312Z,17.11
2023-03-13T04:40:55.870Z,17.11
2023-03-13T04:43:23.913Z,17.06
2023-03-13T04:45:54.638Z,17.00
2023-03-13T04:48:22.614Z,17.09
2023-03-13T04:50:51.081Z,17.20
2023-03-13T04:53:19.627Z,17.13
2023-03-13T04:55:49.685Z,17.15
2023-03-13T04:58:19.268Z,17.14
2023-03-13T05:00:47.172Z,17.15
2023-03-13T05:03:15.070Z,17.03
2023-03-13T05:05:42.950Z,17.10
2023-03-13T05:08:11.361Z,17.01
2023-03-13T05:10:39.361Z,17.07
2023-03-13T05:13:07.247Z,17.04
2023-03-13T05:15:36.862Z,16.96
2023-03-13T05:18:06.305Z,16.84
2023-03-13T05:20:34.581Z,16.83
2023-03-13T05:23:02.552Z,16.73
2023-03-13T05:25:31.033Z,16.63
2023-03-13T05:27:58.898Z,16.55
2023-03-13T05:30:26.769Z,16.40
2023-03-13T05:32:56.247Z,16.35
2023-03-13T05:35:24.476Z,16.33
2023-03-13T05:37:52.502Z,16.36
2023-03-13T05:40:20.706Z,16.38
2023-03-13T05:42:49.038Z,16.39
2023-03-13T05:45:17.066Z,16.40
2023-03-13T05:47:45.149Z,16.50
2023-03-13T05:50:14.862Z,16.61
2023-03-13T05:52:43.269Z,16.71
2023-03-13T05:55:11.341Z,16.70
2023-03-13T05:57:39.524Z,16.78
2023-03-13T06:00:08.682Z,16.81
2023-03-13T06:02:36.588Z,16.77
2023-03-13T06:05:04.823Z,16.69
2023-03-13T06:07:34.388Z,16.63
2023-03-13T06:10:02.603Z,16.52
2023-03-13T06:12:30.538Z,16.35
2023-03-13T06:14:58.773Z,16.33
2023-03-13T06:17:26.858Z,16.32
2023-03-13T06:19:54.713Z,16.32
2023-03-13T06:22:22.624Z,16.35
2023-03-13T06:24:52.259Z,16.40
2023-03-13T06:27:20.129Z,16.51
2023-03-13T06:29:48.284Z,16.57
2023-03-13T06:32:16.442Z,16.58
2023-03-13T06:34:44.467Z,16.60
2023-03-13T06:37:12.405Z,16.71
2023-03-13T06:39:40.615Z,16.75
2023-03-13T06:42:10.130Z,16.72
2023-03-13T06:44:38.636Z,16.73
2023-03-13T06:47:06.901Z,16.60
2023-03-13T06:49:34.856Z,16.62
2023-03-13T06:52:02.821Z,16.58
2023-03-13T06:54:30.730Z,16.51
2023-03-13T06:56:58.608Z,16.40
2023-03-13T06:59:28.342Z,16.37
2023-03-13T07:01:56.380Z,16.32
2023-03-13T07:04:24.336Z,16.20
2023-03-13T07:06:52.623Z,16.28
2023-03-13T07:09:21.069Z,16.30
2023-03-13T07:11:49.267Z,16.33
2023-03-13T07:14:17.779Z,16.45
2023-03-13T07:16:47.850Z,16.43
2023-03-13T07:19:16.392Z,16.57
2023-03-13T07:21:44.486Z,16.64
2023-03-13T07:24:12.690Z,16.65
2023-03-13T07:26:46.469Z,16.64
2023-03-13T07:29:22.497Z,16.56
2023-03-13T07:31:51.948Z,16.59
2023-03-13T07:34:20.023Z,16.60
2023-03-13T07:36:47.897Z,16.60
2023-03-13T07:39:15.992Z,16.65
2023-03-13T07:41:43.979Z,16.63
2023-03-13T07:44:11.983Z,16.58
2023-03-13T07:46:39.938Z,16.66
2023-03-13T07:49:10.112Z,16.65
2023-03-13T07:51:43.987Z,16.69
2023-03-13T07:54:12.546Z,16.71
2023-03-13T07:56:41.062Z,16.72
2023-03-13T07:59:09.473Z,16.76
2023-03-13T08:01:38.015Z,16.86
2023-03-13T08:04:06.393Z,16.84
2023-03-13T08:06:36.837Z,16.89
2023-03-13T08:09:05.617Z,16.90
2023-03-13T08:11:34.051Z,16.94
2023-03-13T08:14:02.080Z,16.96
2023-03-13T08:16:31.662Z,17.04
2023-03-13T08:19:00.693Z,16.98
2023-03-13T08:21:30.199Z,17.04
2023-03-13T08:24:01.512Z,17.05
2023-03-13T08:26:31.027Z,16.94
2023-03-13T08:29:00.394Z,17.04
2023-03-13T08:31:30.457Z,16.90
2023-03-13T08:33:58.786Z,16.98
2023-03-13T08:36:28.741Z,16.91
2023-03-13T08:38:59.521Z,16.90
2023-03-13T08:41:30.948Z,16.86
2023-03-13T08:43:59.666Z,16.80
2023-03-13T08:46:30.636Z,16.87
2023-03-13T08:48:58.842Z,16.90
2023-03-13T08:51:28.685Z,16.94
2023-03-13T08:53:57.674Z,16.87
2023-03-13T08:56:30.455Z,16.92
2023-03-13T08:59:01.096Z,16.91
2023-03-13T09:01:31.596Z,16.99
2023-03-13T09:04:03.585Z,16.94
2023-03-13T09:06:32.050Z,17.03
2023-03-13T09:08:59.986Z,17.13
2023-03-13T09:11:29.810Z,17.07
2023-03-13T09:13:59.417Z,17.11
2023-03-13T09:16:28.848Z,17.21
2023-03-13T09:18:58.028Z,17.23
2023-03-13T09:21:27.738Z,17.17
2023-03-13T09:23:55.876Z,17.27
2023-03-13T09:26:24.507Z,17.33
2023-03-13T09:28:54.864Z,17.39
2023-03-13T09:31:24.933Z,17.36
2023-03-13T09:33:53.444Z,17.40
2023-03-13T09:36:22.881Z,17.44
2023-03-13T09:38:51.795Z,17.56
2023-03-13T09:41:27.391Z,17.53
2023-03-13T09:44:03.275Z,17.60
2023-03-13T09:46:39.018Z,17.72
2023-03-13T09:49:17.925Z,17.73
2023-03-13T09:51:50.705Z,17.82
2023-03-13T09:54:25.992Z,17.79
2023-03-13T09:56:58.685Z,17.72
2023-03-13T09:59:46.298Z,17.71
2023-03-13T10:02:22.979Z,17.66
2023-03-13T10:04:55.350Z,17.67
2023-03-13T10:07:23.472Z,17.60
2023-03-13T10:09:51.951Z,17.54
2023-03-13T10:12:22.098Z,17.56
2023-03-13T10:15:01.803Z,17.57
2023-03-13T10:17:34.598Z,17.62
2023-03-13T10:20:10.991Z,17.59
2023-03-13T10:22:39.715Z,17.48
2023-03-13T10:25:16.599Z,17.51
2023-03-13T10:27:46.614Z,17.50
2023-03-13T10:30:24.949Z,17.46
2023-03-13T10:32:55.687Z,17.39
2023-03-13T10:35:27.664Z,17.37
2023-03-13T10:38:04.691Z,17.44
2023-03-13T10:40:32.822Z,17.45
2023-03-13T10:43:07.034Z,17.57
2023-03-13T10:45:39.197Z,17.56
2023-03-13T10:48:14.200Z,17.59
2023-03-13T10:50:44.953Z,17.69
2023-03-13T10:53:27.513Z,17.66
2023-03-13T10:55:56.877Z,17.80
2023-03-13T10:58:31.762Z,17.85
2023-03-13T11:01:18.543Z,18.00
2023-03-13T11:03:47.912Z,18.07
2023-03-13T11:06:30.606Z,18.14
2023-03-13T11:09:13.267Z,18.09
2023-03-13T11:11:49.148Z,18.08
2023-03-13T11:14:19.599Z,18.05
2023-03-13T11:16:55.781Z,18.10
2023-03-13T11:19:54.511Z,18.10
2023-03-13T11:22:47.363Z,18.04
2023-03-13T11:25:21.979Z,18.09
2023-03-13T11:27:59.630Z,18.10
2023-03-13T11:30:50.678Z,18.07
2023-03-13T11:33:30.370Z,18.07
2023-03-13T11:36:04.479Z,18.09
2023-03-13T11:38:38.843Z,18.11
2023-03-13T11:41:22.545Z,18.23
2023-03-13T11:44:01.618Z,18.38
2023-03-13T11:46:46.983Z,18.40
2023-03-13T11:49:35.661Z,18.33
2023-03-13T11:52:17.943Z,18.25
2023-03-13T11:54:59.957Z,18.22
2023-03-13T11:57:30.979Z,18.13
2023-03-13T12:00:17.448Z,18.14
2023-03-13T12:02:51.506Z,18.03
2023-03-13T12:05:22.090Z,17.99
2023-03-13T12:07:55.707Z,17.78
2023-03-13T12:10:29.125Z,17.46
2023-03-13T12:13:04.796Z,17.12
2023-03-13T12:15:37.129Z,16.71
2023-03-13T12:18:13.777Z,16.44
2023-03-13T12:20:50.189Z,16.27
2023-03-13T12:23:25.173Z,16.23
2023-03-13T12:25:56.598Z,16.29
2023-03-13T12:28:35.408Z,16.36
2023-03-13T12:31:15.385Z,16.46
2023-03-13T12:33:48.127Z,16.61
2023-03-13T12:36:21.838Z,16.82
2023-03-13T12:38:58.285Z,17.04
2023-03-13T12:41:32.037Z,17.26
2023-03-13T12:44:08.646Z,17.42
2023-03-13T12:46:42.473Z,17.58
2023-03-13T12:49:38.092Z,17.75
2023-03-13T12:52:32.561Z,17.92
2023-03-13T12:55:24.909Z,18.04
2023-03-13T12:58:11.027Z,18.07
2023-03-13T13:00:42.696Z,18.15
2023-03-13T13:03:21.912Z,18.30
2023-03-13T13:06:06.138Z,18.47
2023-03-13T13:08:43.837Z,18.62
2023-03-13T13:11:48.367Z,18.68
2023-03-13T13:14:59.312Z,18.73
2023-03-13T13:17:47.215Z,18.73
2023-03-13T13:20:39.178Z,18.86
2023-03-13T13:23:23.265Z,18.89
2023-03-13T13:25:54.394Z,18.92
2023-03-13T13:28:33.457Z,18.94
2023-03-13T13:31:02.150Z,18.96
2023-03-13T13:33:39.034Z,19.10
2023-03-13T13:36:30.724Z,19.28
2023-03-13T13:38:59.928Z,19.40
2023-03-13T13:41:36.701Z,19.34
2023-03-13T13:44:23.960Z,19.11
2023-03-13T13:46:52.526Z,18.74
2023-03-13T13:49:22.224Z,18.22
2023-03-13T13:52:37.144Z,17.78
2023-03-13T13:55:32.918Z,17.42
2023-03-13T13:58:05.185Z,17.23
2023-03-13T14:00:41.160Z,17.08
2023-03-13T14:03:20.620Z,16.93
2023-03-13T14:05:50.807Z,16.66
2023-03-13T14:08:24.153Z,16.28
2023-03-13T14:11:05.023Z,15.98
2023-03-13T14:13:34.540Z,15.74
2023-03-13T14:16:24.102Z,15.59
2023-03-13T14:18:52.900Z,15.46
2023-03-13T14:21:23.836Z,15.34
2023-03-13T14:23:52.209Z,15.24
2023-03-13T14:26:22.318Z,15.20
2023-03-13T14:28:53.743Z,15.16
2023-03-13T14:31:27.167Z,15.23
2023-03-13T14:33:56.901Z,15.27
2023-03-13T14:36:25.392Z,15.35
2023-03-13T14:38:55.396Z,15.40
2023-03-13T14:41:31.554Z,15.42
2023-03-13T14:44:15.134Z,15.43
2023-03-13T14:46:45.294Z,15.50
2023-03-13T14:49:21.156Z,15.82
2023-03-13T14:51:59.339Z,16.22
2023-03-13T14:54:30.614Z,16.94
2023-03-13T14:57:13.921Z,17.42
2023-03-13T14:59:43.702Z,17.46
2023-03-13T15:02:20.065Z,17.41
2023-03-13T15:05:00.347Z,17.34
2023-03-13T15:07:36.918Z,17.28
2023-03-13T15:10:20.045Z,17.33
2023-03-13T15:12:48.778Z,17.39
2023-03-13T15:15:18.186Z,17.68
2023-03-13T15:17:46.352Z,18.13
2023-03-13T15:20:16.161Z,18.59
2023-03-13T15:22:46.270Z,19.00
2023-03-13T15:25:17.397Z,19.38
2023-03-13T15:27:45.640Z,19.65
2023-03-13T15:30:19.184Z,19.86
2023-03-13T15:32:48.150Z,20.00
2023-03-13T15:35:28.859Z,19.58
2023-03-13T15:37:57.302Z,19.10
2023-03-13T15:40:26.083Z,18.66
2023-03-13T15:42:54.592Z,18.47
2023-03-13T15:45:24.009Z,18.45
2023-03-13T15:47:52.406Z,18.47
2023-03-13T15:50:22.454Z,18.50
2023-03-13T15:52:50.524Z,18.51
2023-03-13T15:55:18.558Z,18.47
2023-03-13T15:57:48.372Z,18.49
2023-03-13T16:00:19.952Z,18.50
2023-03-13T16:02:52.054Z,18.47
2023-03-13T16:05:20.315Z,18.49
2023-03-13T16:07:48.416Z,18.45
2023-03-13T16:10:19.163Z,18.43
2023-03-13T16:12:47.030Z,18.43
2023-03-13T16:15:14.998Z,18.45
2023-03-13T16:17:43.042Z,18.47
2023-03-13T16:20:17.101Z,18.54
2023-03-13T16:22:45.635Z,18.60
2023-03-13T16:25:14.403Z,18.64
2023-03-13T16:27:42.892Z,18.70
2023-03-13T16:30:35.454Z,18.73
2023-03-13T16:33:03.515Z,18.78
2023-03-13T16:35:35.584Z,18.69
2023-03-13T16:38:03.852Z,18.63
2023-03-13T16:40:34.167Z,18.57
2023-03-13T16:43:02.686Z,18.56
2023-03-13T16:45:30.908Z,18.64
2023-03-13T16:47:58.962Z,18.59
2023-03-13T16:50:30.214Z,18.58
2023-03-13T16:52:59.585Z,18.57
2023-03-13T16:55:29.758Z,18.50
2023-03-13T16:57:58.373Z,18.55
2023-03-13T17:00:28.516Z,18.45
2023-03-13T17:02:57.655Z,18.44
2023-03-13T17:05:27.114Z,18.45
2023-03-13T17:07:55.081Z,18.42
2023-03-13T17:10:26.864Z,18.23
2023-03-13T17:12:54.971Z,18.03
2023-03-13T17:15:23.893Z,17.71
2023-03-13T17:17:53.388Z,17.45
2023-03-13T17:20:23.872Z,17.28
2023-03-13T17:22:53.575Z,17.16
2023-03-13T17:25:21.606Z,16.99
2023-03-13T17:27:51.052Z,16.89
2023-03-13T17:30:22.368Z,16.81
2023-03-13T17:32:50.856Z,16.67
2023-03-13T17:35:20.316Z,16.60
2023-03-13T17:37:48.973Z,16.54
2023-03-13T17:40:18.963Z,16.43
2023-03-13T17:42:46.813Z,16.43
2023-03-13T17:45:16.612Z,16.41
2023-03-13T17:47:45.080Z,16.36
2023-03-13T17:50:18.925Z,16.29
2023-03-13T17:52:47.375Z,16.25
2023-03-13T17:55:15.700Z,16.18
2023-03-13T17:57:44.350Z,16.21
2023-03-13T18:00:22.040Z,16.14
2023-03-13T18:02:50.421Z,16.15
2023-03-13T18:05:19.094Z,16.14
2023-03-13T18:07:47.747Z,16.14
2023-03-13T18:10:19.975Z,16.12
2023-03-13T18:12:48.164Z,16.06
2023-03-13T18:15:18.083Z,16.09
2023-03-13T18:17:46.410Z,16.04
2023-03-13T18:20:19.606Z,15.93
2023-03-13T18:22:47.968Z,15.84
2023-03-13T18:25:16.146Z,15.81
2023-03-13T18:27:44.239Z,15.69
2023-03-13T18:30:16.661Z,15.56
2023-03-13T18:32:46.876Z,15.49
2023-03-13T18:35:15.765Z,15.44
2023-03-13T18:37:45.202Z,15.34
2023-03-13T18:40:18.218Z,15.29
2023-03-13T18:42:46.090Z,15.25
2023-03-13T18:45:18.173Z,15.22
2023-03-13T18:47:48.490Z,15.19
2023-03-13T18:50:28.456Z,15.18
2023-03-13T18:52:59.052Z,15.24
2023-03-13T18:55:30.529Z,15.17
2023-03-13T18:57:59.046Z,15.25
2023-03-13T19:00:28.627Z,15.15
2023-03-13T19:02:58.251Z,15.16
2023-03-13T19:05:26.139Z,15.20
2023-03-13T19:07:54.364Z,15.15
2023-03-13T19:10:24.613Z,15.10
2023-03-13T19:12:53.207Z,15.12
2023-03-13T19:15:22.024Z,15.11
2023-03-13T19:17:49.984Z,15.03
2023-03-13T19:20:37.325Z,14.94
2023-03-13T19:23:05.298Z,14.92
2023-03-13T19:25:34.534Z,14.86
2023-03-13T19:28:02.447Z,14.82
2023-03-13T19:30:30.518Z,14.86
2023-03-13T19:32:58.855Z,14.86
2023-03-13T19:35:26.972Z,14.83
2023-03-13T19:37:56.460Z,14.78
2023-03-13T19:40:28.527Z,14.82
2023-03-13T19:42:56.432Z,14.81
2023-03-13T19:45:24.660Z,14.78
2023-03-13T19:47:52.645Z,14.76
2023-03-13T19:50:22.385Z,14.72
2023-03-13T19:52:50.391Z,14.68
2023-03-13T19:55:20.198Z,14.68
2023-03-13T19:57:48.339Z,14.66
2023-03-13T20:00:21.140Z,14.66
2023-03-13T20:02:49.533Z,14.62
2023-03-13T20:05:18.517Z,14.61
2023-03-13T20:07:47.754Z,14.61
2023-03-13T20:10:16.041Z,14.62
2023-03-13T20:12:45.547Z,14.61
2023-03-13T20:15:14.241Z,14.60
2023-03-13T20:17:42.339Z,14.64
2023-03-13T20:20:13.650Z,14.72
2023-03-13T20:22:41.679Z,14.70
2023-03-13T20:25:10.473Z,14.67
2023-03-13T20:27:39.196Z,14.67
2023-03-13T20:30:10.216Z,14.70
2023-03-13T20:32:46.218Z,14.72
2023-03-13T20:35:25.051Z,14.67
2023-03-13T20:37:54.634Z,14.65
2023-03-13T20:40:22.842Z,14.66
2023-03-13T20:42:52.107Z,14.71
2023-03-13T20:45:21.473Z,14.65
2023-03-13T20:47:49.488Z,14.67
2023-03-13T20:50:19.630Z,14.66
2023-03-13T20:52:48.739Z,14.65
2023-03-13T20:55:17.029Z,14.66
2023-03-13T20:57:44.901Z,14.66
2023-03-13T21:00:13.683Z,14.59
2023-03-13T21:02:43.663Z,14.58
2023-03-13T21:05:11.638Z,14.56
2023-03-13T21:07:42.116Z,14.43
2023-03-13T21:10:11.657Z,14.36
2023-03-13T21:12:39.755Z,14.18
2023-03-13T21:15:09.663Z,14.05
2023-03-13T21:17:37.915Z,13.88
2023-03-13T21:20:11.764Z,13.73
2023-03-13T21:22:40.112Z,13.59
2023-03-13T21:25:09.110Z,13.46
2023-03-13T21:27:37.518Z,13.35
2023-03-13T21:30:07.526Z,13.28
2023-03-13T21:32:37.942Z,13.16
2023-03-13T21:35:07.876Z,13.10
2023-03-13T21:37:36.265Z,13.03
2023-03-13T21:40:06.488Z,13.02
2023-03-13T21:42:36.117Z,13.01
2023-03-13T21:45:04.041Z,12.96
2023-03-13T21:47:36.689Z,12.92
2023-03-13T21:50:08.434Z,12.91
2023-03-13T21:52:40.847Z,12.89
2023-03-13T21:55:11.281Z,12.85
2023-03-13T21:57:39.249Z,12.86
2023-03-13T22:00:08.978Z,12.82
2023-03-13T22:02:37.771Z,12.86
2023-03-13T22:05:08.587Z,12.84
2023-03-13T22:07:38.872Z,12.85
2023-03-13T22:10:07.697Z,12.89
2023-03-13T22:12:37.288Z,12.92
2023-03-13T22:15:05.980Z,12.95
2023-03-13T22:17:34.038Z,12.99
2023-03-13T22:20:02.052Z,12.98
2023-03-13T22:22:32.352Z,13.03
2023-03-13T22:25:00.509Z,13.05
2023-03-13T22:27:28.461Z,13.01
2023-03-13T22:29:57.112Z,12.96
2023-03-13T22:32:26.993Z,12.97
2023-03-13T22:34:55.082Z,12.94
2023-03-13T22:37:26.715Z,12.91
2023-03-13T22:39:56.549Z,12.94
2023-03-13T22:42:25.116Z,12.96
2023-03-13T22:44:55.148Z,12.94
2023-03-13T22:47:23.816Z,12.92
2023-03-13T22:49:52.554Z,12.83
2023-03-13T22:52:21.397Z,12.78
2023-03-13T22:54:49.371Z,12.76
2023-03-13T22:57:18.747Z,12.72
2023-03-13T22:59:46.745Z,12.69
2023-03-13T23:02:14.956Z,12.56
2023-03-13T23:04:43.275Z,12.52
2023-03-13T23:07:12.305Z,12.47
2023-03-13T23:09:40.296Z,12.45
2023-03-13T23:12:08.259Z,12.44
2023-03-13T23:14:37.697Z,12.45
2023-03-13T23:17:06.007Z,12.44
2023-03-13T23:19:35.591Z,12.43
2023-03-13T23:22:03.513Z,12.44
2023-03-13T23:24:31.394Z,12.46
2023-03-13T23:26:59.294Z,12.51
2023-03-13T23:29:27.308Z,12.51
2023-03-13T23:31:57.035Z,12.52
2023-03-13T23:34:25.288Z,12.50
2023-03-13T23:36:54.457Z,12.54
2023-03-13T23:39:25.068Z,12.56
2023-03-13T23:41:53.160Z,12.57
2023-03-13T23:44:21.232Z,12.57
2023-03-13T23:46:49.231Z,12.53
2023-03-13T23:49:18.831Z,12.58
2023-03-13T23:51:46.696Z,12.55
2023-03-13T23:54:14.724Z,12.55
2023-03-13T23:56:42.773Z,12.56
2023-03-13T23:59:10.705Z,12.50
